Time;durP1;ratioP1;P1;durP2;ratioP2;P2;SDS_P1;SDS_P2;PMS_P1;PMS_P2;Temp;Humidity;BMP_temperature;BMP_pressure;BME280_temperature;BME280_humidity;BME280_pressure;Samples;Min_cycle;Max_cycle;Signal;HPM_P1;HPM_P2
2022/06/21 00:02:14;;;;;;;11.43;6.75;;;;;;;14.92;60.17;97183.75;4954704;28;20687;-80
2022/06/21 00:04:40;;;;;;;6.95;6.13;;;;;;;14.92;60.43;97179.28;4933173;28;20280;-80
2022/06/21 00:07:06;;;;;;;7.15;6.50;;;;;;;14.88;60.39;97172.25;4949975;28;20214;-80
2022/06/21 00:09:31;;;;;;;7.82;7.07;;;;;;;14.85;60.87;97167.53;4949579;28;20355;-80
2022/06/21 00:11:57;;;;;;;8.65;7.45;;;;;;;14.85;61.01;97167.53;4964736;28;20264;-80
2022/06/21 00:14:22;;;;;;;8.68;7.57;;;;;;;14.91;61.38;97161.22;4966834;28;20727;-80
2022/06/21 00:16:48;;;;;;;8.82;8.02;;;;;;;14.94;61.11;97165.91;4964892;28;20210;-81
2022/06/21 00:19:21;;;;;;;9.50;7.75;;;;;;;14.84;61.25;97163.34;4964400;28;20653;-80
2022/06/21 00:21:47;;;;;;;8.75;7.40;;;;;;;14.95;61.13;97167.47;4946966;28;20138;-80
2022/06/21 00:24:13;;;;;;;8.25;7.55;;;;;;;14.96;61.07;97166.44;4948897;28;20221;-80
2022/06/21 00:26:38;;;;;;;7.65;6.95;;;;;;;14.96;61.21;97169.84;4948402;28;20295;-80
2022/06/21 00:29:03;;;;;;;8.18;7.28;;;;;;;14.96;61.12;97172.47;4964255;28;20257;-81
2022/06/21 00:31:31;;;;;;;9.88;7.00;;;;;;;14.93;60.69;97169.59;4947870;28;20190;-80
2022/06/21 00:33:57;;;;;;;7.32;6.38;;;;;;;14.92;60.17;97178.50;4946638;28;20255;-81
2022/06/21 00:36:29;;;;;;;7.80;6.78;;;;;;;14.73;60.24;97173.13;4964632;28;20680;-79
2022/06/21 00:38:56;;;;;;;7.32;6.60;;;;;;;14.75;60.61;97163.13;4971487;28;20252;-79
2022/06/21 00:41:32;;;;;;;8.70;7.35;;;;;;;14.54;61.55;97162.44;4944442;28;20160;-79
2022/06/21 00:44:02;;;;;;;7.78;6.97;;;;;;;14.53;61.19;97164.28;4950554;28;20213;-79
2022/06/21 00:46:33;;;;;;;7.50;6.65;;;;;;;14.57;60.95;97173.16;4932467;28;20208;-79
2022/06/21 00:49:01;;;;;;;6.95;6.30;;;;;;;14.61;60.82;97176.06;4948694;28;20360;-79
2022/06/21 00:51:38;;;;;;;7.38;6.68;;;;;;;14.56;61.30;97176.81;4964228;28;20773;-78
2022/06/21 00:54:21;;;;;;;10.18;7.15;;;;;;;14.54;61.20;97178.94;4965238;28;20370;-79
2022/06/21 00:56:54;;;;;;;8.57;7.13;;;;;;;14.61;61.15;97168.19;4931437;28;20267;-79
2022/06/21 00:59:26;;;;;;;8.90;7.97;;;;;;;14.77;61.54;97172.31;4966190;28;20298;-79
2022/06/21 01:01:56;;;;;;;9.32;7.25;;;;;;;14.61;61.71;97168.97;4942104;28;20787;-79
2022/06/21 01:04:31;;;;;;;11.18;7.63;;;;;;;14.56;61.11;97170.81;4962772;28;20268;-79
2022/06/21 01:06:58;;;;;;;8.13;6.97;;;;;;;14.66;60.74;97168.16;4957813;28;20287;-79
2022/06/21 01:09:34;;;;;;;7.57;6.55;;;;;;;14.49;60.94;97162.47;4964085;28;20174;-79
2022/06/21 01:12:05;;;;;;;7.88;6.88;;;;;;;14.52;61.23;97159.31;4945450;28;20618;-79
2022/06/21 01:14:32;;;;;;;7.18;6.45;;;;;;;14.56;61.28;97160.34;4962869;28;20178;-79
2022/06/21 01:16:58;;;;;;;8.43;7.55;;;;;;;14.56;61.50;97155.09;4966047;28;20214;-79
2022/06/21 01:19:43;;;;;;;8.57;7.68;;;;;;;14.42;62.05;97155.69;4935345;28;20655;-79
2022/06/21 01:22:45;;;;;;;9.30;7.05;;;;;;;14.40;62.47;97147.31;4950684;28;20678;-79
2022/06/21 01:25:23;;;;;;;8.65;7.18;;;;;;;14.42;62.75;97141.81;4966908;28;20203;-79
2022/06/21 01:27:51;;;;;;;8.13;7.32;;;;;;;14.63;61.64;97137.25;4973136;28;20403;-79
2022/06/21 01:30:16;;;;;;;7.88;7.07;;;;;;;14.52;61.37;97138.34;4958473;28;20259;-79
2022/06/21 01:32:43;;;;;;;8.20;7.45;;;;;;;14.41;60.97;97135.00;4964761;28;20268;-79
2022/06/21 01:35:14;;;;;;;7.90;7.10;;;;;;;14.29;61.34;97130.09;4971531;28;20163;-79
2022/06/21 01:37:40;;;;;;;7.90;7.13;;;;;;;14.27;61.32;97116.47;4967017;28;20855;-79
2022/06/21 01:40:29;;;;;;;8.40;7.60;;;;;;;14.08;61.67;97118.13;4948732;28;20597;-79
2022/06/21 01:42:58;;;;;;;8.90;7.90;;;;;;;14.27;61.55;97136.63;4963989;28;20690;-79
2022/06/21 01:45:27;;;;;;;7.53;6.80;;;;;;;14.26;61.31;97138.47;4943788;28;20334;-79
2022/06/21 01:47:58;;;;;;;6.82;6.20;;;;;;;14.18;61.64;97133.78;4947557;28;20554;-79
2022/06/21 01:50:24;;;;;;;8.82;6.93;;;;;;;14.14;61.93;97130.94;4965056;28;20699;-80
2022/06/21 01:52:52;;;;;;;7.95;7.13;;;;;;;14.15;61.74;97129.88;4967096;28;20259;-79
2022/06/21 01:55:29;;;;;;;6.95;6.22;;;;;;;14.13;61.29;97137.22;4964543;28;20254;-79
2022/06/21 01:57:58;;;;;;;7.15;6.43;;;;;;;14.17;61.46;97140.06;4948224;28;20160;-79
2022/06/21 02:00:24;;;;;;;8.63;6.60;;;;;;;14.24;61.74;97133.50;4964553;28;20192;-79
2022/06/21 02:02:54;;;;;;;8.10;6.30;;;;;;;14.07;61.92;97127.81;4953855;28;20510;-79
2022/06/21 02:05:34;;;;;;;7.65;6.28;;;;;;;14.03;62.16;97111.88;4968715;28;20261;-79
2022/06/21 02:08:07;;;;;;;7.70;6.90;;;;;;;14.13;61.50;97110.25;4966112;28;20190;-79
2022/06/21 02:10:35;;;;;;;6.57;5.97;;;;;;;14.24;61.42;97114.41;4932882;28;20649;-79
2022/06/21 02:13:31;;;;;;;6.75;5.93;;;;;;;14.14;61.67;97120.47;4933572;28;20632;-79
2022/06/21 02:16:01;;;;;;;7.38;6.20;;;;;;;14.24;60.90;97111.78;4931197;28;20278;-79
2022/06/21 02:18:29;;;;;;;6.95;6.18;;;;;;;14.29;61.35;97109.13;4944181;28;20294;-79
2022/06/21 02:21:09;;;;;;;5.82;5.32;;;;;;;14.26;61.75;97107.06;4950725;28;20272;-79
2022/06/21 02:23:34;;;;;;;6.35;5.00;;;;;;;14.35;61.69;97102.03;4966519;28;20207;-79
2022/06/21 02:26:03;;;;;;;9.00;6.38;;;;;;;14.24;61.46;97107.31;4948906;28;20651;-79
2022/06/21 02:28:29;;;;;;;7.15;6.35;;;;;;;14.15;61.27;97103.69;4964335;28;20758;-79
2022/06/21 02:30:57;;;;;;;8.43;7.20;;;;;;;14.00;61.42;97101.94;4948331;28;20188;-79
2022/06/21 02:33:29;;;;;;;7.50;6.80;;;;;;;13.91;61.88;97095.66;4964703;28;20207;-79
2022/06/21 02:36:02;;;;;;;6.75;5.93;;;;;;;13.87;62.19;97094.63;4965059;28;20283;-79
2022/06/21 02:38:35;;;;;;;8.07;6.35;;;;;;;13.91;61.96;97103.50;4948072;28;20159;-78
2022/06/21 02:41:22;;;;;;;6.60;5.82;;;;;;;13.82;62.33;97105.91;4970442;28;20218;-79
2022/06/21 02:43:58;;;;;;;6.95;5.00;;;;;;;13.89;62.37;97107.47;4951839;28;20203;-79
2022/06/21 02:46:28;;;;;;;6.68;5.95;;;;;;;14.02;61.78;97091.97;4953597;28;20309;-79
2022/06/21 02:49:06;;;;;;;5.70;5.10;;;;;;;14.13;61.87;97095.31;4950689;28;20253;-79
2022/06/21 02:51:37;;;;;;;5.93;4.68;;;;;;;14.14;61.99;97098.72;4948620;28;20300;-79
2022/06/21 02:54:28;;;;;;;4.90;4.40;;;;;;;14.15;61.79;97092.44;4948562;28;20179;-79
2022/06/21 02:57:12;;;;;;;5.95;4.70;;;;;;;14.15;61.87;97095.06;4955214;28;20653;-79
2022/06/21 02:59:40;;;;;;;5.50;4.88;;;;;;;14.22;61.63;97087.69;4970405;28;20212;-79
2022/06/21 03:02:10;;;;;;;6.82;5.38;;;;;;;14.21;61.58;97081.66;4947469;28;20276;-79
2022/06/21 03:04:35;;;;;;;6.47;5.30;;;;;;;14.23;61.32;97074.31;4947886;28;20673;-79
2022/06/21 03:07:02;;;;;;;6.15;5.55;;;;;;;14.00;60.98;97057.44;4966251;28;20277;-79
2022/06/21 03:09:28;;;;;;;6.60;5.88;;;;;;;13.77;60.95;97048.34;4948126;28;20198;-79
2022/06/21 03:11:59;;;;;;;7.97;6.47;;;;;;;13.53;61.03;97045.56;4965645;28;20285;-79
2022/06/21 03:14:27;;;;;;;6.68;6.07;;;;;;;13.51;61.06;97042.41;4967183;28;20188;-79
2022/06/21 03:16:55;;;;;;;5.72;5.22;;;;;;;13.63;60.98;97055.97;4951048;28;20277;-79
2022/06/21 03:19:45;;;;;;;6.03;5.53;;;;;;;13.64;60.97;97052.31;4975498;28;20288;-79
2022/06/21 03:22:18;;;;;;;5.93;5.05;;;;;;;13.62;60.96;97045.78;4970387;28;20285;-79
2022/06/21 03:24:44;;;;;;;6.68;6.07;;;;;;;13.77;61.25;97044.94;4951330;28;20757;-79
2022/06/21 03:27:16;;;;;;;7.35;5.93;;;;;;;13.76;61.59;97051.22;4967654;28;20222;-79
2022/06/21 03:29:41;;;;;;;6.05;5.25;;;;;;;13.82;61.58;97040.47;4950998;28;20237;-79
2022/06/21 03:32:07;;;;;;;5.10;4.40;;;;;;;13.88;61.76;97041.25;4968433;28;20215;-79
2022/06/21 03:34:34;;;;;;;6.40;5.80;;;;;;;13.90;62.13;97038.34;4966890;28;20424;-79
2022/06/21 03:37:01;;;;;;;5.70;4.85;;;;;;;13.92;61.88;97033.66;4934353;28;20296;-79
2022/06/21 03:42:14;;;;;;;5.75;4.57;;;;;;;14.00;61.72;97044.34;4967497;28;20331;-79
2022/06/21 03:44:45;;;;;;;6.57;5.32;;;;;;;14.00;61.58;97049.56;4948463;28;20767;-79
2022/06/21 03:47:31;;;;;;;5.00;4.50;;;;;;;13.97;62.13;97039.63;4951077;28;20452;-79
2022/06/21 03:50:13;;;;;;;5.78;4.90;;;;;;;13.98;62.22;97041.22;4950425;28;20219;-79
2022/06/21 03:52:50;;;;;;;6.05;4.95;;;;;;;14.21;61.53;97041.63;4967025;28;20183;-80
2022/06/21 03:55:26;;;;;;;6.28;5.03;;;;;;;14.04;61.98;97034.88;4930576;28;20638;-79
2022/06/21 03:58:28;;;;;;;7.00;4.88;;;;;;;13.98;61.94;97029.94;4962744;28;20640;-79
2022/06/21 04:01:15;;;;;;;5.28;4.32;;;;;;;13.99;61.78;97021.81;4909191;28;20395;-79
2022/06/21 04:03:45;;;;;;;5.32;4.82;;;;;;;14.14;61.17;97025.44;4965088;28;20194;-79
2022/06/21 04:06:36;;;;;;;5.93;5.30;;;;;;;13.98;61.81;97015.03;4950633;28;20690;-79
2022/06/21 04:09:42;;;;;;;5.32;4.82;;;;;;;13.87;61.74;97016.13;4944079;28;20302;-79
2022/06/21 04:12:17;;;;;;;5.97;5.30;;;;;;;14.01;62.28;97013.69;4963614;28;20239;-79
2022/06/21 04:14:51;;;;;;;5.13;4.63;;;;;;;14.00;62.09;97009.50;4932974;28;20236;-79
2022/06/21 04:17:25;;;;;;;5.47;4.95;;;;;;;14.03;61.81;97001.91;4967234;28;20203;-79
2022/06/21 04:20:06;;;;;;;5.00;4.30;;;;;;;14.19;61.64;97007.84;4965959;28;20257;-79
2022/06/21 04:22:38;;;;;;;6.65;4.50;;;;;;;14.31;61.51;97007.50;4967063;28;20207;-79
2022/06/21 04:25:19;;;;;;;4.65;3.88;;;;;;;14.28;61.12;97002.81;4966343;28;20187;-79
2022/06/21 04:27:54;;;;;;;4.82;4.38;;;;;;;14.32;61.11;96998.56;4951237;28;20254;-79
2022/06/21 04:30:34;;;;;;;3.80;3.38;;;;;;;14.36;60.69;97001.44;4950492;28;20256;-79
2022/06/21 04:33:07;;;;;;;5.10;3.65;;;;;;;14.54;60.55;97007.88;4966477;28;20192;-79
2022/06/21 04:35:42;;;;;;;4.68;3.53;;;;;;;14.65;60.46;97008.59;4933581;28;20283;-79
2022/06/21 04:38:24;;;;;;;4.03;3.17;;;;;;;14.72;60.29;97002.00;4934497;28;20288;-79
2022/06/21 04:40:58;;;;;;;3.33;3.00;;;;;;;14.93;60.02;97001.81;4955447;28;20772;-79
2022/06/21 04:43:26;;;;;;;3.40;3.10;;;;;;;15.06;59.14;97009.03;4949401;28;20643;-79
2022/06/21 04:45:59;;;;;;;4.57;3.40;;;;;;;15.10;59.06;97012.66;4965972;28;20285;-79
2022/06/21 04:48:24;;;;;;;3.40;3.10;;;;;;;15.31;58.81;97026.34;4965995;28;20209;-79
2022/06/21 04:50:55;;;;;;;3.75;3.15;;;;;;;15.41;58.08;97022.84;4966148;28;20644;-79
2022/06/21 04:53:26;;;;;;;4.22;2.83;;;;;;;15.55;57.61;97009.81;4949910;28;20217;-79
2022/06/21 04:56:04;;;;;;;2.67;2.47;;;;;;;15.77;57.12;97009.34;4949142;28;20214;-79
2022/06/21 04:58:30;;;;;;;2.88;2.60;;;;;;;16.01;57.11;97019.78;4934250;28;20171;-78
2022/06/21 05:00:56;;;;;;;2.78;2.50;;;;;;;16.15;56.32;97019.09;4946242;28;20593;-79
2022/06/21 05:03:37;;;;;;;2.83;2.50;;;;;;;15.95;56.45;97007.00;4946648;28;20163;-79
2022/06/21 05:06:03;;;;;;;4.25;2.55;;;;;;;16.27;56.37;97001.81;4941679;28;20160;-79
2022/06/21 05:08:29;;;;;;;3.35;2.53;;;;;;;16.40;55.94;97015.31;4948493;28;20400;-79
2022/06/21 05:10:58;;;;;;;3.20;2.20;;;;;;;16.35;55.50;97013.56;4964788;28;20211;-79
2022/06/21 05:13:28;;;;;;;2.58;2.25;;;;;;;16.36;55.57;97006.44;4964307;28;20532;-78
2022/06/21 05:15:55;;;;;;;2.05;1.95;;;;;;;16.47;55.38;97002.59;4947508;28;20199;-78
2022/06/21 05:18:24;;;;;;;2.38;1.90;;;;;;;16.64;55.06;97000.22;4941819;28;20186;-78
2022/06/21 05:20:56;;;;;;;3.00;2.00;;;;;;;16.84;54.36;97004.41;4941844;28;20179;-80
2022/06/21 05:23:22;;;;;;;3.63;1.90;;;;;;;17.03;53.99;97003.53;4964550;28;20206;-80
2022/06/21 05:25:49;;;;;;;2.35;2.10;;;;;;;17.20;53.61;97003.78;4964007;28;20205;-79
2022/06/21 05:28:29;;;;;;;3.42;2.05;;;;;;;17.11;52.62;97002.88;4932638;28;20185;-78
2022/06/21 05:30:59;;;;;;;2.53;1.95;;;;;;;17.32;52.78;97000.66;4968557;28;20297;-79
2022/06/21 05:33:31;;;;;;;1.95;1.85;;;;;;;17.42;52.55;97003.09;4946824;28;20731;-79
2022/06/21 05:35:56;;;;;;;2.55;1.95;;;;;;;17.62;53.35;97000.38;4946255;28;20252;-79
2022/06/21 05:38:27;;;;;;;2.17;1.70;;;;;;;17.56;52.63;96997.03;4962205;28;20292;-79
2022/06/21 05:41:02;;;;;;;3.50;2.00;;;;;;;17.55;53.07;96992.88;4962710;28;20265;-79
2022/06/21 05:43:38;;;;;;;3.38;2.30;;;;;;;17.48;52.39;97000.34;4944859;28;20293;-78
2022/06/21 05:46:10;;;;;;;3.30;1.95;;;;;;;17.41;52.95;97003.41;4944359;28;20705;-79
2022/06/21 05:48:37;;;;;;;2.95;2.00;;;;;;;17.54;52.49;97017.63;4947405;28;20218;-78
2022/06/21 05:51:04;;;;;;;2.10;1.90;;;;;;;17.56;52.74;97018.91;4964642;28;20623;-79
2022/06/21 05:53:33;;;;;;;2.25;1.80;;;;;;;17.73;52.48;97028.81;4963661;28;20272;-79
2022/06/21 05:56:05;;;;;;;2.17;1.55;;;;;;;17.89;51.75;97037.25;4964157;28;20624;-79
2022/06/21 05:58:33;;;;;;;3.40;1.95;;;;;;;18.07;52.06;97038.16;4948757;28;20286;-80
2022/06/21 06:01:20;;;;;;;2.70;1.67;;;;;;;18.22;51.42;97049.47;4946098;28;20349;-80
2022/06/21 06:04:09;;;;;;;2.67;1.60;;;;;;;18.16;51.10;97048.78;4964891;28;20280;-80
2022/06/21 06:06:36;;;;;;;3.83;1.85;;;;;;;18.40;51.18;97045.13;4940197;28;20719;-79
2022/06/21 06:09:07;;;;;;;2.78;1.88;;;;;;;18.29;50.34;97050.63;4948913;28;20160;-79
2022/06/21 06:11:58;;;;;;;3.53;2.30;;;;;;;18.44;50.30;97051.34;4947021;28;20182;-79
2022/06/21 06:14:28;;;;;;;2.42;1.50;;;;;;;18.81;50.54;97055.50;4945887;28;20336;-79
2022/06/21 06:16:54;;;;;;;3.13;2.08;;;;;;;18.87;48.34;97054.34;4948622;28;20241;-79
2022/06/21 06:19:41;;;;;;;3.45;1.65;;;;;;;19.12;49.26;97062.69;4948749;28;20344;-79
2022/06/21 06:22:06;;;;;;;2.92;2.05;;;;;;;19.55;47.04;97083.25;4964254;28;20164;-78
2022/06/21 06:24:35;;;;;;;3.30;1.65;;;;;;;19.69;47.25;97085.00;4964259;28;20184;-79
2022/06/21 06:27:02;;;;;;;5.45;1.95;;;;;;;19.99;47.36;97099.28;4946895;28;20271;-79
2022/06/21 06:29:38;;;;;;;2.55;1.85;;;;;;;20.17;47.07;97095.59;4954550;28;20263;-79
2022/06/21 06:32:14;;;;;;;2.70;1.60;;;;;;;20.31;45.35;97094.69;4938221;28;20933;-79
2022/06/21 06:34:43;;;;;;;3.88;1.98;;;;;;;20.57;44.59;97107.91;4941166;28;20051;-79
2022/06/21 06:37:30;;;;;;;2.60;1.85;;;;;;;20.73;43.63;97113.53;4968671;28;20168;-79
2022/06/21 06:39:56;;;;;;;2.22;1.63;;;;;;;20.84;42.48;97114.78;4955983;28;20123;-79
2022/06/21 06:42:24;;;;;;;4.30;1.50;;;;;;;21.04;43.16;97131.91;4957564;28;20166;-79
2022/06/21 06:44:53;;;;;;;3.08;1.65;;;;;;;21.14;43.83;97139.50;4971526;28;20064;-79
2022/06/21 06:47:39;;;;;;;3.47;1.60;;;;;;;21.03;44.18;97138.28;4973957;28;20032;-79
2022/06/21 06:50:24;;;;;;;3.38;2.47;;;;;;;21.01;44.77;97123.78;4944236;28;20028;-79
2022/06/21 06:52:55;;;;;;;4.47;2.05;;;;;;;20.85;42.78;97095.16;4958396;28;20017;-77
2022/06/21 06:56:03;;;;;;;3.15;1.50;;;;;;;20.42;41.88;97069.47;4974373;28;20066;-78
2022/06/21 06:58:35;;;;;;;3.10;1.55;;;;;;;20.33;43.85;97006.00;4945554;28;20044;-79
2022/06/21 07:01:09;;;;;;;3.33;1.73;;;;;;;19.56;44.16;96921.06;4960741;28;20072;-79
2022/06/21 07:03:42;;;;;;;4.40;1.40;;;;;;;19.38;45.47;96877.22;4975659;28;20823;-80
2022/06/21 07:06:17;;;;;;;3.92;1.98;;;;;;;19.14;51.87;96954.19;4960815;28;20118;-79
2022/06/21 07:08:51;;;;;;;3.63;1.95;;;;;;;19.09;51.73;96976.25;4962874;28;20790;-78
2022/06/21 07:11:25;;;;;;;2.90;1.88;;;;;;;18.93;52.98;96946.81;4979400;28;20104;-79
2022/06/21 07:13:51;;;;;;;3.38;1.88;;;;;;;18.66;52.60;96921.38;4944262;28;20052;-80
2022/06/21 07:16:21;;;;;;;3.42;2.17;;;;;;;18.79;52.67;96948.75;4975499;28;20819;-79
2022/06/21 07:18:48;;;;;;;3.58;2.20;;;;;;;18.82;52.79;96951.59;4958965;28;20721;-79
2022/06/21 07:21:15;;;;;;;4.15;2.22;;;;;;;18.84;52.40;96938.09;4960709;28;20025;-79
2022/06/21 07:23:40;;;;;;;4.78;2.55;;;;;;;18.87;51.79;96955.97;4961273;28;20723;-79
2022/06/21 07:26:18;;;;;;;3.75;1.90;;;;;;;19.38;52.03;96957.25;4974255;28;20044;-79
2022/06/21 07:28:57;;;;;;;3.75;2.17;;;;;;;19.79;48.75;96979.88;4960501;28;20032;-78
2022/06/21 07:31:29;;;;;;;2.50;1.98;;;;;;;20.23;48.88;96960.63;4960249;28;20693;-79
2022/06/21 07:34:06;;;;;;;6.45;2.03;;;;;;;20.20;47.36;96952.22;4958229;28;20033;-78
2022/06/21 07:36:36;;;;;;;4.20;2.42;;;;;;;20.45;45.64;96941.16;4969443;28;20833;-79
2022/06/21 07:39:08;;;;;;;3.72;1.60;;;;;;;20.94;44.75;96936.38;4959607;28;20865;-78
2022/06/21 07:41:42;;;;;;;3.97;1.77;;;;;;;21.01;43.05;96934.00;4959039;28;20029;-78
2022/06/21 07:44:26;;;;;;;4.85;2.30;;;;;;;21.41;44.06;96928.34;4959276;28;20029;-78
2022/06/21 07:46:54;;;;;;;3.95;1.98;;;;;;;21.72;43.08;96940.50;4957515;28;20025;-79
2022/06/21 07:49:26;;;;;;;3.60;1.52;;;;;;;21.83;41.15;96936.38;4958935;28;20719;-78
2022/06/21 07:52:02;;;;;;;3.38;2.13;;;;;;;21.98;41.19;96932.34;4973589;28;20020;-79
2022/06/21 07:54:32;;;;;;;2.13;1.38;;;;;;;22.28;41.31;96920.88;4952742;28;20035;-79
2022/06/21 07:57:04;;;;;;;2.05;1.77;;;;;;;22.28;40.01;96924.31;4951706;28;20449;-78
2022/06/21 07:59:36;;;;;;;5.40;1.75;;;;;;;22.70;40.36;96924.19;4972847;28;20033;-79
2022/06/21 08:08:06;;;;;;;2.08;1.48;;;;;;;23.25;39.06;96926.69;4983636;28;20033;-79
2022/06/21 08:10:36;;;;;;;3.00;1.60;;;;;;;23.60;38.83;96932.31;4964154;28;20814;-79
2022/06/21 08:13:02;;;;;;;3.13;1.35;;;;;;;23.39;37.67;96932.44;4957896;28;20756;-78
2022/06/21 08:15:32;;;;;;;2.85;1.63;;;;;;;23.36;38.53;96935.78;4956772;28;20021;-78
2022/06/21 08:18:03;;;;;;;4.82;2.20;;;;;;;23.50;38.57;96949.47;4957377;28;20036;-78
2022/06/21 08:20:43;;;;;;;2.63;1.88;;;;;;;23.71;39.40;96943.25;4979327;28;20089;-78
2022/06/21 08:23:21;;;;;;;2.55;2.35;;;;;;;24.16;37.13;96944.13;4938720;28;20029;-78
2022/06/21 08:26:02;;;;;;;5.72;2.25;;;;;;;24.60;36.96;96950.25;4967780;28;20112;-78
2022/06/21 08:28:40;;;;;;;9.18;3.30;;;;;;;24.36;35.31;96951.13;4974156;28;20041;-78
2022/06/21 08:31:24;;;;;;;3.00;1.80;;;;;;;24.03;36.31;96951.41;4957330;28;20025;-79
2022/06/21 08:33:56;;;;;;;2.78;1.65;;;;;;;24.03;36.75;96956.72;4957345;28;20094;-78
2022/06/21 08:36:29;;;;;;;7.88;2.42;;;;;;;24.53;37.91;96958.03;4958273;28;20037;-77
2022/06/21 08:39:13;;;;;;;3.40;1.85;;;;;;;24.47;35.78;96962.84;4975048;28;20033;-80
2022/06/21 08:42:00;;;;;;;2.50;1.60;;;;;;;24.09;35.56;96969.44;4978691;28;20712;-79
2022/06/21 08:48:02;;;;;;;2.72;1.90;;;;;;;24.42;35.63;96954.31;4993965;28;20269;-78
2022/06/21 08:51:13;;;;;;;2.53;1.65;;;;;;;24.36;36.17;96956.47;4979907;28;20088;-76
2022/06/21 08:53:41;;;;;;;2.28;1.52;;;;;;;24.64;35.78;96956.47;4962536;28;20064;-77
2022/06/21 08:56:18;;;;;;;2.55;1.67;;;;;;;24.62;35.23;96953.34;4956092;28;20029;-75
2022/06/21 08:58:55;;;;;;;2.28;1.70;;;;;;;24.71;34.25;96958.53;4973079;28;20770;-76
2022/06/21 09:01:34;;;;;;;3.83;1.85;;;;;;;24.53;34.43;96963.38;4975763;28;20720;-78
2022/06/21 09:04:18;;;;;;;2.97;1.58;;;;;;;24.57;35.10;96964.25;4956243;28;20052;-79
2022/06/21 09:06:58;;;;;;;3.30;1.65;;;;;;;24.48;35.11;96960.94;4974216;28;20083;-79
2022/06/21 09:10:13;;;;;;;2.80;1.45;;;;;;;24.28;37.11;96960.03;4968748;28;20090;-78
2022/06/21 09:13:16;;;;;;;3.55;1.60;;;;;;;24.01;36.13;96959.72;4954666;28;20724;-78
2022/06/21 09:15:56;;;;;;;4.68;2.25;;;;;;;24.41;36.01;96966.09;4980634;28;20791;-79
2022/06/21 09:18:53;;;;;;;2.28;1.98;;;;;;;24.59;37.87;96982.53;4982173;28;20020;-78
2022/06/21 09:21:21;;;;;;;5.82;1.60;;;;;;;25.44;37.19;96980.47;4973985;28;20051;-78
2022/06/21 09:23:59;;;;;;;6.25;2.08;;;;;;;25.54;35.92;96963.94;4976479;28;20115;-78
2022/06/21 09:27:03;;;;;;;3.67;1.95;;;;;;;26.13;34.83;96951.47;4983407;28;20067;-76
2022/06/21 09:29:56;;;;;;;2.28;2.00;;;;;;;26.40;33.60;96953.47;4975084;28;20036;-78
2022/06/21 09:32:44;;;;;;;3.15;2.10;;;;;;;26.66;33.81;96950.91;4974605;28;20706;-78
2022/06/21 09:35:25;;;;;;;3.92;1.73;;;;;;;26.84;33.76;96966.47;4975808;28;20111;-78
2022/06/21 09:37:59;;;;;;;13.13;4.07;;;;;;;27.44;33.07;96964.00;4957715;28;20086;-78
2022/06/21 09:40:32;;;;;;;3.60;1.80;;;;;;;27.42;33.98;96960.16;4965596;28;20025;-78
2022/06/21 09:43:19;;;;;;;3.97;1.80;;;;;;;27.72;31.28;96956.72;4957700;28;20024;-78
2022/06/21 09:45:58;;;;;;;3.22;2.20;;;;;;;28.23;31.85;96966.19;4971296;28;20032;-79
2022/06/21 09:48:33;;;;;;;4.50;2.30;;;;;;;27.88;31.11;96956.53;4950793;28;20123;-78
2022/06/21 09:51:11;;;;;;;2.80;1.80;;;;;;;28.12;32.69;96972.19;4979785;28;20098;-78
2022/06/21 09:53:55;;;;;;;2.08;1.92;;;;;;;27.67;31.29;96967.75;4948386;28;20835;-78
2022/06/21 09:56:32;;;;;;;2.72;1.85;;;;;;;27.93;31.47;96964.28;4957371;28;20700;-78
2022/06/21 09:59:12;;;;;;;3.08;2.25;;;;;;;28.15;31.64;96955.38;4974036;28;20099;-78
2022/06/21 10:01:43;;;;;;;3.55;1.80;;;;;;;28.00;33.29;96959.81;4959133;28;20195;-79
2022/06/21 10:04:12;;;;;;;4.38;2.42;;;;;;;27.98;32.43;96942.56;4956734;28;20044;-75
2022/06/21 10:06:44;;;;;;;3.47;2.05;;;;;;;28.02;32.22;96940.69;4973067;28;20685;-76
2022/06/21 10:09:25;;;;;;;4.40;1.80;;;;;;;27.80;31.12;96945.75;4955801;28;20025;-75
2022/06/21 10:11:50;;;;;;;3.28;2.20;;;;;;;28.13;32.04;96946.94;4976989;28;20028;-78
2022/06/21 10:14:37;;;;;;;3.00;2.22;;;;;;;28.63;31.49;96927.19;4962442;28;20086;-78
2022/06/21 10:17:33;;;;;;;4.45;2.33;;;;;;;29.33;30.44;96928.88;4977589;28;20746;-78
2022/06/21 10:20:18;;;;;;;3.20;2.25;;;;;;;29.47;29.96;96930.88;4972902;28;20835;-79
2022/06/21 10:22:49;;;;;;;;;;;;;;;29.19;29.84;96928.81;4977183;28;20020;-78
2022/06/21 10:25:33;;;;;;;2.75;1.83;;;;;;;29.55;29.55;96922.88;4981326;28;19904;-78
2022/06/21 10:28:15;;;;;;;2.53;1.80;;;;;;;28.99;30.66;96916.75;4979321;28;20094;-79
2022/06/21 10:31:02;;;;;;;3.35;2.03;;;;;;;29.62;29.92;96930.97;4976329;28;20025;-78
2022/06/21 10:33:51;;;;;;;3.50;2.10;;;;;;;29.95;30.67;96923.84;4962881;28;20025;-76
2022/06/21 10:36:38;;;;;;;2.15;1.70;;;;;;;30.19;31.03;96928.50;4968762;28;20083;-76
2022/06/21 10:39:07;;;;;;;4.35;2.13;;;;;;;30.62;29.96;96923.25;4975185;28;20033;-76
2022/06/21 10:44:45;;;;;;;2.92;2.72;;;;;;;30.82;28.79;96909.44;4970766;28;20757;-76
2022/06/21 10:47:23;;;;;;;3.42;2.10;;;;;;;30.83;29.30;96910.97;4959969;28;20880;-75
2022/06/21 10:50:06;;;;;;;2.50;2.00;;;;;;;31.26;29.95;96916.34;4958159;28;20037;-76
2022/06/21 10:52:59;;;;;;;2.65;2.13;;;;;;;31.30;29.00;96921.72;4974828;28;20036;-76
2022/06/21 10:55:27;;;;;;;3.78;2.55;;;;;;;30.97;28.71;96919.06;4977488;28;20325;-76
2022/06/21 10:58:17;;;;;;;3.05;2.40;;;;;;;31.21;28.08;96910.59;4988767;28;20079;-76
2022/06/21 11:03:45;;;;;;;3.25;2.13;;;;;;;31.14;29.74;96906.75;4977381;28;20016;-76
2022/06/21 11:06:23;;;;;;;2.88;2.13;;;;;;;31.33;28.67;96905.56;4975117;28;20032;-76
2022/06/21 11:09:02;;;;;;;4.13;2.33;;;;;;;31.07;28.39;96905.97;4974705;28;20033;-76
2022/06/21 11:11:29;;;;;;;2.75;2.25;;;;;;;31.21;29.18;96902.53;4974580;28;20060;-76
2022/06/21 11:14:17;;;;;;;3.63;2.80;;;;;;;30.49;29.31;96894.47;4986267;28;20028;-77
2022/06/21 11:16:51;;;;;;;2.85;2.22;;;;;;;30.34;30.40;96888.28;4974263;28;20033;-77
2022/06/21 11:19:32;;;;;;;3.85;3.30;;;;;;;30.07;30.56;96885.91;4974789;28;20025;-77
2022/06/21 11:22:04;;;;;;;2.42;2.22;;;;;;;30.03;31.45;96877.09;4975460;28;20848;-76
2022/06/21 11:24:54;;;;;;;2.42;2.20;;;;;;;30.01;32.04;96869.41;4974379;28;20844;-76
2022/06/21 11:27:23;;;;;;;2.88;2.40;;;;;;;30.21;31.93;96877.09;4975573;28;20763;-76
2022/06/21 11:30:13;;;;;;;3.05;2.30;;;;;;;29.63;31.54;96860.84;4987462;28;20021;-76
2022/06/21 11:32:48;;;;;;;2.67;2.40;;;;;;;29.86;31.78;96854.41;4956094;28;20252;-77
2022/06/21 11:35:25;;;;;;;3.17;2.22;;;;;;;29.92;32.35;96847.53;4974753;28;20028;-76
2022/06/21 11:38:14;;;;;;;3.83;3.03;;;;;;;29.69;32.88;96837.84;4947906;28;20025;-76
2022/06/21 11:40:56;;;;;;;2.90;2.60;;;;;;;29.46;32.51;96843.50;4976872;28;20028;-76
2022/06/21 11:43:35;;;;;;;3.70;2.78;;;;;;;29.45;33.18;96843.88;4973505;28;20037;-76
2022/06/21 11:46:12;;;;;;;3.00;2.75;;;;;;;28.98;33.88;96842.84;4973075;28;20108;-77
2022/06/21 11:49:06;;;;;;;2.75;2.50;;;;;;;29.03;34.43;96834.44;4965931;28;20098;-76
2022/06/21 11:51:58;;;;;;;2.50;2.28;;;;;;;29.12;34.62;96822.25;4974795;28;20940;-76
2022/06/21 11:54:36;;;;;;;4.80;2.88;;;;;;;29.19;33.48;96824.22;4957321;28;20025;-76
2022/06/21 11:57:23;;;;;;;3.42;2.92;;;;;;;28.88;33.39;96822.88;4974041;28;20021;-77
2022/06/21 11:59:57;;;;;;;3.63;2.63;;;;;;;28.89;33.18;96814.47;4940726;28;20044;-76
2022/06/21 12:02:59;;;;;;;3.35;2.75;;;;;;;29.06;35.66;96802.28;4973567;28;20029;-77
2022/06/21 12:05:50;;;;;;;3.60;2.30;;;;;;;29.07;34.05;96789.69;4973592;28;20721;-76
2022/06/21 12:08:53;;;;;;;4.03;2.63;;;;;;;28.82;34.60;96792.97;4973308;28;20063;-76
2022/06/21 12:11:21;;;;;;;10.65;3.08;;;;;;;29.12;33.26;96794.69;4917049;28;20269;-76
2022/06/21 12:13:55;;;;;;;3.03;2.47;;;;;;;29.02;34.23;96787.34;4932758;28;20053;-76
2022/06/21 12:16:21;;;;;;;;;;;;;;;28.76;34.05;96786.44;4915276;28;20038;-76
2022/06/21 12:18:53;;;;;;;3.97;2.65;;;;;;;28.88;34.70;96772.72;4916692;28;19934;-76
2022/06/21 12:21:22;;;;;;;5.50;2.75;;;;;;;28.93;35.05;96760.91;4921984;28;20037;-76
2022/06/21 12:23:53;;;;;;;3.45;2.72;;;;;;;28.66;33.82;96779.09;4901312;28;20877;-76
2022/06/21 12:26:21;;;;;;;3.70;3.10;;;;;;;28.57;34.78;96782.88;4932763;28;20761;-76
2022/06/21 12:28:47;;;;;;;2.97;2.75;;;;;;;28.70;34.96;96764.59;4938557;28;20702;-76
2022/06/21 12:31:17;;;;;;;3.17;2.45;;;;;;;28.77;35.32;96770.00;4900180;28;20029;-76